sensor_id;sensor_type;location;lat;lon;timestamp;pressure;altitude;pressure_sealevel;temperature;humidity
56176;BME280;63065;51.082;17.016;2023-03-25T00:00:23;99265.46;;;16.13;35.43
56176;BME280;63065;51.082;17.016;2023-03-25T00:02:50;99264.30;;;16.37;35.46
56176;BME280;63065;51.082;17.016;2023-03-25T00:05:15;99264.81;;;16.29;35.80
56176;BME280;63065;51.082;17.016;2023-03-25T00:07:40;99259.76;;;16.29;35.55
56176;BME280;63065;51.082;17.016;2023-03-25T00:10:07;99258.19;;;16.35;35.30
56176;BME280;63065;51.082;17.016;2023-03-25T00:12:31;99254.53;;;16.06;35.21
56176;BME280;63065;51.082;17.016;2023-03-25T00:14:56;99256.55;;;16.22;35.60
56176;BME280;63065;51.082;17.016;2023-03-25T00:17:22;99252.77;;;16.18;35.55
56176;BME280;63065;51.082;17.016;2023-03-25T00:19:47;99251.96;;;16.23;35.78
56176;BME280;63065;51.082;17.016;2023-03-25T00:22:13;99248.45;;;16.18;35.46
56176;BME280;63065;51.082;17.016;2023-03-25T00:24:38;99242.07;;;16.24;35.67
56176;BME280;63065;51.082;17.016;2023-03-25T00:27:05;99239.87;;;16.18;35.96
56176;BME280;63065;51.082;17.016;2023-03-25T00:29:30;99238.31;;;16.13;35.70
56176;BME280;63065;51.082;17.016;2023-03-25T00:31:56;99235.34;;;16.08;36.66
56176;BME280;63065;51.082;17.016;2023-03-25T00:34:21;99233.90;;;16.07;36.06
56176;BME280;63065;51.082;17.016;2023-03-25T00:36:47;99232.03;;;16.04;36.55
56176;BME280;63065;51.082;17.016;2023-03-25T00:39:13;99231.37;;;15.96;35.86
56176;BME280;63065;51.082;17.016;2023-03-25T00:41:39;99231.27;;;16.19;36.53
56176;BME280;63065;51.082;17.016;2023-03-25T00:44:11;99235.20;;;16.39;36.14
56176;BME280;63065;51.082;17.016;2023-03-25T00:46:32;99236.49;;;15.82;36.42
56176;BME280;63065;51.082;17.016;2023-03-25T00:48:57;99238.11;;;15.79;36.01
56176;BME280;63065;51.082;17.016;2023-03-25T00:51:22;99236.38;;;15.76;36.53
56176;BME280;63065;51.082;17.016;2023-03-25T00:53:49;99235.41;;;15.80;36.43
56176;BME280;63065;51.082;17.016;2023-03-25T00:56:13;99237.06;;;15.56;36.45
56176;BME280;63065;51.082;17.016;2023-03-25T00:58:38;99238.25;;;16.24;36.63
56176;BME280;63065;51.082;17.016;2023-03-25T01:01:08;99238.08;;;15.99;35.75
56176;BME280;63065;51.082;17.016;2023-03-25T01:03:29;99238.79;;;15.68;36.16
56176;BME280;63065;51.082;17.016;2023-03-25T01:05:54;99239.67;;;15.60;36.25
56176;BME280;63065;51.082;17.016;2023-03-25T01:08:21;99240.38;;;15.88;36.54
56176;BME280;63065;51.082;17.016;2023-03-25T01:10:45;99234.90;;;16.04;36.97
56176;BME280;63065;51.082;17.016;2023-03-25T01:13:11;99232.37;;;15.70;36.39
56176;BME280;63065;51.082;17.016;2023-03-25T01:15:39;99229.43;;;15.62;36.66
56176;BME280;63065;51.082;17.016;2023-03-25T01:18:01;99228.69;;;15.55;36.35
56176;BME280;63065;51.082;17.016;2023-03-25T01:20:27;99227.66;;;15.71;36.79
56176;BME280;63065;51.082;17.016;2023-03-25T01:22:52;99224.63;;;15.49;37.31
56176;BME280;63065;51.082;17.016;2023-03-25T01:25:18;99223.44;;;15.74;36.91
56176;BME280;63065;51.082;17.016;2023-03-25T01:27:43;99222.94;;;15.55;36.53
56176;BME280;63065;51.082;17.016;2023-03-25T01:30:10;99225.01;;;15.43;36.68
56176;BME280;63065;51.082;17.016;2023-03-25T01:32:34;99224.95;;;15.63;37.26
56176;BME280;63065;51.082;17.016;2023-03-25T01:35:00;99224.68;;;15.41;37.02
56176;BME280;63065;51.082;17.016;2023-03-25T01:37:26;99214.51;;;15.11;37.13
56176;BME280;63065;51.082;17.016;2023-03-25T01:39:52;99208.58;;;15.39;37.63
56176;BME280;63065;51.082;17.016;2023-03-25T01:42:17;99211.23;;;15.47;36.86
56176;BME280;63065;51.082;17.016;2023-03-25T01:47:08;99206.92;;;15.31;36.61
56176;BME280;63065;51.082;17.016;2023-03-25T01:49:37;99202.79;;;15.52;37.04
56176;BME280;63065;51.082;17.016;2023-03-25T01:52:03;99197.94;;;15.22;36.94
56176;BME280;63065;51.082;17.016;2023-03-25T01:54:26;99194.56;;;15.21;37.09
56176;BME280;63065;51.082;17.016;2023-03-25T01:56:51;99194.21;;;15.46;36.90
56176;BME280;63065;51.082;17.016;2023-03-25T01:59:19;99189.84;;;15.47;36.89
56176;BME280;63065;51.082;17.016;2023-03-25T02:01:43;99185.08;;;15.22;36.85
56176;BME280;63065;51.082;17.016;2023-03-25T02:04:08;99183.53;;;15.21;36.59
56176;BME280;63065;51.082;17.016;2023-03-25T02:06:37;99181.68;;;15.26;37.16
56176;BME280;63065;51.082;17.016;2023-03-25T02:09:03;99179.50;;;15.20;37.25
56176;BME280;63065;51.082;17.016;2023-03-25T02:11:25;99177.15;;;15.16;37.81
56176;BME280;63065;51.082;17.016;2023-03-25T02:13:51;99180.79;;;15.18;37.61
56176;BME280;63065;51.082;17.016;2023-03-25T02:16:25;99177.56;;;15.14;37.39
56176;BME280;63065;51.082;17.016;2023-03-25T02:18:48;99179.50;;;15.11;37.17
56176;BME280;63065;51.082;17.016;2023-03-25T02:26:08;99181.89;;;15.31;37.27
56176;BME280;63065;51.082;17.016;2023-03-25T02:28:29;99181.23;;;15.01;37.87
56176;BME280;63065;51.082;17.016;2023-03-25T02:31:02;99183.08;;;15.04;38.19
56176;BME280;63065;51.082;17.016;2023-03-25T02:33:28;99178.85;;;15.09;37.62
56176;BME280;63065;51.082;17.016;2023-03-25T02:35:54;99172.92;;;15.12;37.73
56176;BME280;63065;51.082;17.016;2023-03-25T02:38:15;99171.37;;;15.10;36.61
56176;BME280;63065;51.082;17.016;2023-03-25T02:40:37;99172.59;;;15.00;36.98
56176;BME280;63065;51.082;17.016;2023-03-25T02:43:02;99172.10;;;14.94;37.12
56176;BME280;63065;51.082;17.016;2023-03-25T02:45:28;99172.61;;;14.89;37.12
56176;BME280;63065;51.082;17.016;2023-03-25T02:47:52;99170.69;;;15.11;37.32
56176;BME280;63065;51.082;17.016;2023-03-25T02:50:18;99172.12;;;14.77;37.38
56176;BME280;63065;51.082;17.016;2023-03-25T02:52:44;99175.90;;;14.72;37.63
56176;BME280;63065;51.082;17.016;2023-03-25T02:55:09;99179.44;;;14.63;37.28
56176;BME280;63065;51.082;17.016;2023-03-25T02:57:33;99180.01;;;14.59;37.47
56176;BME280;63065;51.082;17.016;2023-03-25T02:59:57;99181.43;;;14.62;37.49
56176;BME280;63065;51.082;17.016;2023-03-25T03:02:25;99182.91;;;14.65;37.75
56176;BME280;63065;51.082;17.016;2023-03-25T03:04:50;99180.58;;;14.56;37.40
56176;BME280;63065;51.082;17.016;2023-03-25T03:07:20;99184.74;;;14.55;37.80
56176;BME280;63065;51.082;17.016;2023-03-25T03:09:44;99184.31;;;14.81;37.75
56176;BME280;63065;51.082;17.016;2023-03-25T03:12:14;99185.31;;;14.56;37.87
56176;BME280;63065;51.082;17.016;2023-03-25T03:14:41;99182.12;;;14.55;38.16
56176;BME280;63065;51.082;17.016;2023-03-25T03:17:04;99182.00;;;14.80;38.14
56176;BME280;63065;51.082;17.016;2023-03-25T03:19:32;99181.22;;;14.99;38.10
56176;BME280;63065;51.082;17.016;2023-03-25T03:21:53;99180.76;;;14.79;38.42
56176;BME280;63065;51.082;17.016;2023-03-25T03:24:16;99178.93;;;14.52;37.85
56176;BME280;63065;51.082;17.016;2023-03-25T03:26:44;99182.75;;;14.45;38.17
56176;BME280;63065;51.082;17.016;2023-03-25T03:29:12;99185.92;;;14.84;37.59
56176;BME280;63065;51.082;17.016;2023-03-25T03:31:34;99184.95;;;14.59;38.47
56176;BME280;63065;51.082;17.016;2023-03-25T03:33:58;99195.04;;;14.60;38.34
56176;BME280;63065;51.082;17.016;2023-03-25T03:36:25;99200.75;;;14.61;37.82
56176;BME280;63065;51.082;17.016;2023-03-25T03:38:51;99200.00;;;14.50;38.00
56176;BME280;63065;51.082;17.016;2023-03-25T03:41:18;99194.48;;;14.21;37.84
56176;BME280;63065;51.082;17.016;2023-03-25T03:43:42;99195.36;;;14.34;37.85
56176;BME280;63065;51.082;17.016;2023-03-25T03:46:06;99197.49;;;14.82;38.18
56176;BME280;63065;51.082;17.016;2023-03-25T03:48:32;99196.77;;;14.38;38.11
56176;BME280;63065;51.082;17.016;2023-03-25T03:50:57;99197.60;;;14.45;38.08
56176;BME280;63065;51.082;17.016;2023-03-25T03:53:24;99197.29;;;14.89;38.06
56176;BME280;63065;51.082;17.016;2023-03-25T03:55:48;99196.47;;;14.40;38.41
56176;BME280;63065;51.082;17.016;2023-03-25T03:58:17;99198.18;;;14.43;38.00
56176;BME280;63065;51.082;17.016;2023-03-25T04:00:41;99202.04;;;14.50;38.08
56176;BME280;63065;51.082;17.016;2023-03-25T04:03:09;99198.67;;;14.53;37.64
56176;BME280;63065;51.082;17.016;2023-03-25T04:05:28;99197.63;;;14.77;37.59
56176;BME280;63065;51.082;17.016;2023-03-25T04:07:56;99195.54;;;14.41;37.65
56176;BME280;63065;51.082;17.016;2023-03-25T04:10:21;99193.76;;;14.32;37.59
56176;BME280;63065;51.082;17.016;2023-03-25T04:12:46;99196.61;;;14.22;37.76
56176;BME280;63065;51.082;17.016;2023-03-25T04:15:10;99197.82;;;14.39;37.99
56176;BME280;63065;51.082;17.016;2023-03-25T04:17:35;99197.78;;;14.31;37.51
56176;BME280;63065;51.082;17.016;2023-03-25T04:20:00;99196.47;;;14.40;37.66
56176;BME280;63065;51.082;17.016;2023-03-25T04:22:26;99198.65;;;14.35;37.90
56176;BME280;63065;51.082;17.016;2023-03-25T04:24:51;99200.55;;;14.34;37.97
56176;BME280;63065;51.082;17.016;2023-03-25T04:27:18;99201.35;;;13.85;37.70
56176;BME280;63065;51.082;17.016;2023-03-25T04:29:43;99203.05;;;14.25;38.15
56176;BME280;63065;51.082;17.016;2023-03-25T04:32:14;99202.01;;;14.22;37.98
56176;BME280;63065;51.082;17.016;2023-03-25T04:34:33;99202.22;;;13.95;38.00
56176;BME280;63065;51.082;17.016;2023-03-25T04:36:59;99207.13;;;14.19;37.51
56176;BME280;63065;51.082;17.016;2023-03-25T04:39:25;99207.54;;;14.11;37.96
56176;BME280;63065;51.082;17.016;2023-03-25T04:41:51;99209.77;;;14.06;38.04
56176;BME280;63065;51.082;17.016;2023-03-25T04:44:16;99207.41;;;13.74;38.51
56176;BME280;63065;51.082;17.016;2023-03-25T04:46:43;99210.55;;;14.14;37.52
56176;BME280;63065;51.082;17.016;2023-03-25T04:49:16;99212.38;;;13.55;38.19
56176;BME280;63065;51.082;17.016;2023-03-25T04:51:33;99214.35;;;13.85;38.39
56176;BME280;63065;51.082;17.016;2023-03-25T04:53:58;99211.32;;;13.64;38.06
56176;BME280;63065;51.082;17.016;2023-03-25T04:56:24;99215.21;;;13.57;38.60
56176;BME280;63065;51.082;17.016;2023-03-25T04:58:50;99218.56;;;13.65;38.40
56176;BME280;63065;51.082;17.016;2023-03-25T05:01:20;99224.90;;;13.61;38.26
56176;BME280;63065;51.082;17.016;2023-03-25T05:03:40;99222.87;;;13.69;38.25
56176;BME280;63065;51.082;17.016;2023-03-25T05:06:06;99221.31;;;13.72;38.55
56176;BME280;63065;51.082;17.016;2023-03-25T05:08:31;99217.41;;;13.96;38.11
56176;BME280;63065;51.082;17.016;2023-03-25T05:10:56;99218.24;;;13.69;38.51
56176;BME280;63065;51.082;17.016;2023-03-25T05:13:21;99217.89;;;13.69;38.37
56176;BME280;63065;51.082;17.016;2023-03-25T05:15:47;99215.38;;;13.70;38.65
56176;BME280;63065;51.082;17.016;2023-03-25T05:18:14;99213.07;;;13.46;38.06
56176;BME280;63065;51.082;17.016;2023-03-25T05:20:39;99214.84;;;13.71;38.55
56176;BME280;63065;51.082;17.016;2023-03-25T05:23:03;99218.46;;;13.72;38.23
56176;BME280;63065;51.082;17.016;2023-03-25T05:25:29;99216.48;;;13.69;38.41
56176;BME280;63065;51.082;17.016;2023-03-25T05:27:54;99213.47;;;13.70;38.79
56176;BME280;63065;51.082;17.016;2023-03-25T05:30:19;99208.80;;;14.02;38.62
56176;BME280;63065;51.082;17.016;2023-03-25T05:32:45;99205.59;;;13.99;38.35
56176;BME280;63065;51.082;17.016;2023-03-25T05:35:11;99205.40;;;13.68;38.51
56176;BME280;63065;51.082;17.016;2023-03-25T05:37:36;99203.18;;;13.76;38.80
56176;BME280;63065;51.082;17.016;2023-03-25T05:40:02;99198.09;;;13.88;38.84
56176;BME280;63065;51.082;17.016;2023-03-25T05:42:27;99200.09;;;13.97;38.88
56176;BME280;63065;51.082;17.016;2023-03-25T05:44:53;99201.33;;;14.09;38.38
56176;BME280;63065;51.082;17.016;2023-03-25T05:47:21;99203.91;;;13.95;38.50
56176;BME280;63065;51.082;17.016;2023-03-25T05:49:45;99211.60;;;14.23;38.64
56176;BME280;63065;51.082;17.016;2023-03-25T05:52:10;99212.73;;;14.04;38.73
56176;BME280;63065;51.082;17.016;2023-03-25T05:54:36;99213.87;;;14.22;38.43
56176;BME280;63065;51.082;17.016;2023-03-25T05:57:02;99217.21;;;14.53;38.66
56176;BME280;63065;51.082;17.016;2023-03-25T05:59:28;99221.17;;;14.51;38.37
56176;BME280;63065;51.082;17.016;2023-03-25T06:01:53;99221.45;;;14.65;38.14
56176;BME280;63065;51.082;17.016;2023-03-25T06:04:18;99225.20;;;14.72;37.99
56176;BME280;63065;51.082;17.016;2023-03-25T06:06:43;99223.18;;;14.65;37.92
56176;BME280;63065;51.082;17.016;2023-03-25T06:09:09;99223.10;;;14.83;38.29
56176;BME280;63065;51.082;17.016;2023-03-25T06:11:35;99227.74;;;14.99;37.81
56176;BME280;63065;51.082;17.016;2023-03-25T06:14:00;99227.38;;;15.16;36.97
56176;BME280;63065;51.082;17.016;2023-03-25T06:16:26;99224.15;;;15.10;37.31
56176;BME280;63065;51.082;17.016;2023-03-25T06:18:51;99218.32;;;15.31;36.17
56176;BME280;63065;51.082;17.016;2023-03-25T06:21:17;99216.29;;;15.39;36.09
56176;BME280;63065;51.082;17.016;2023-03-25T06:23:42;99212.95;;;15.84;36.08
56176;BME280;63065;51.082;17.016;2023-03-25T06:26:08;99213.90;;;15.73;35.65
56176;BME280;63065;51.082;17.016;2023-03-25T06:28:33;99216.95;;;16.17;35.68
56176;BME280;63065;51.082;17.016;2023-03-25T06:30:59;99212.16;;;16.53;34.76
56176;BME280;63065;51.082;17.016;2023-03-25T06:33:25;99212.71;;;16.16;35.23
56176;BME280;63065;51.082;17.016;2023-03-25T06:35:50;99213.27;;;16.62;34.74
56176;BME280;63065;51.082;17.016;2023-03-25T06:38:16;99214.62;;;16.81;34.88
56176;BME280;63065;51.082;17.016;2023-03-25T06:40:41;99212.98;;;17.12;34.17
56176;BME280;63065;51.082;17.016;2023-03-25T06:43:09;99214.29;;;16.77;33.87
56176;BME280;63065;51.082;17.016;2023-03-25T06:45:33;99210.82;;;17.02;34.24
56176;BME280;63065;51.082;17.016;2023-03-25T06:47:58;99206.25;;;16.97;34.08
56176;BME280;63065;51.082;17.016;2023-03-25T06:50:24;99207.40;;;16.87;34.40
56176;BME280;63065;51.082;17.016;2023-03-25T06:52:50;99217.92;;;17.18;34.31
56176;BME280;63065;51.082;17.016;2023-03-25T06:55:15;99221.59;;;16.91;34.47
56176;BME280;63065;51.082;17.016;2023-03-25T06:57:41;99221.68;;;16.76;34.38
56176;BME280;63065;51.082;17.016;2023-03-25T07:00:08;99227.53;;;17.11;33.94
56176;BME280;63065;51.082;17.016;2023-03-25T07:02:32;99209.13;;;16.64;35.15
56176;BME280;63065;51.082;17.016;2023-03-25T07:04:57;99207.19;;;16.87;36.04
56176;BME280;63065;51.082;17.016;2023-03-25T07:07:23;99206.42;;;16.71;35.91
56176;BME280;63065;51.082;17.016;2023-03-25T07:09:51;99205.04;;;17.06;35.93
56176;BME280;63065;51.082;17.016;2023-03-25T07:12:13;99206.71;;;17.07;35.73
56176;BME280;63065;51.082;17.016;2023-03-25T07:14:39;99204.20;;;17.00;35.79
56176;BME280;63065;51.082;17.016;2023-03-25T07:17:06;99202.54;;;17.04;36.04
56176;BME280;63065;51.082;17.016;2023-03-25T07:19:31;99206.52;;;17.06;35.87
56176;BME280;63065;51.082;17.016;2023-03-25T07:21:57;99206.06;;;17.06;35.83
56176;BME280;63065;51.082;17.016;2023-03-25T07:24:22;99206.45;;;17.36;35.85
56176;BME280;63065;51.082;17.016;2023-03-25T07:26:47;99212.05;;;17.24;35.94
56176;BME280;63065;51.082;17.016;2023-03-25T07:29:13;99213.65;;;17.08;35.75
56176;BME280;63065;51.082;17.016;2023-03-25T07:31:39;99218.76;;;17.08;35.98
56176;BME280;63065;51.082;17.016;2023-03-25T07:34:06;99221.54;;;17.25;35.87
56176;BME280;63065;51.082;17.016;2023-03-25T07:36:30;99220.23;;;17.19;35.92
56176;BME280;63065;51.082;17.016;2023-03-25T07:38:56;99219.47;;;17.23;36.03
56176;BME280;63065;51.082;17.016;2023-03-25T07:41:22;99214.67;;;17.33;35.94
56176;BME280;63065;51.082;17.016;2023-03-25T07:43:48;99217.13;;;17.24;35.78
56176;BME280;63065;51.082;17.016;2023-03-25T07:46:13;99218.83;;;17.35;35.18
56176;BME280;63065;51.082;17.016;2023-03-25T07:48:38;99223.19;;;17.37;35.87
56176;BME280;63065;51.082;17.016;2023-03-25T07:51:04;99228.66;;;17.21;35.23
56176;BME280;63065;51.082;17.016;2023-03-25T07:53:30;99229.27;;;17.06;35.65
56176;BME280;63065;51.082;17.016;2023-03-25T07:55:55;99222.63;;;17.18;35.42
56176;BME280;63065;51.082;17.016;2023-03-25T07:58:21;99214.19;;;17.39;34.91
56176;BME280;63065;51.082;17.016;2023-03-25T08:00:47;99212.77;;;17.50;34.25
56176;BME280;63065;51.082;17.016;2023-03-25T08:03:14;99213.93;;;17.92;33.79
56176;BME280;63065;51.082;17.016;2023-03-25T08:05:43;99211.17;;;17.75;33.46
56176;BME280;63065;51.082;17.016;2023-03-25T08:08:05;99210.79;;;17.74;33.13
56176;BME280;63065;51.082;17.016;2023-03-25T08:10:30;99211.87;;;17.81;33.13
56176;BME280;63065;51.082;17.016;2023-03-25T08:12:56;99214.30;;;17.76;33.40
56176;BME280;63065;51.082;17.016;2023-03-25T08:15:21;99216.98;;;18.00;33.00
56176;BME280;63065;51.082;17.016;2023-03-25T08:17:47;99218.96;;;18.16;32.99
56176;BME280;63065;51.082;17.016;2023-03-25T08:20:12;99218.38;;;17.95;32.72
56176;BME280;63065;51.082;17.016;2023-03-25T08:22:38;99217.35;;;17.71;32.01
56176;BME280;63065;51.082;17.016;2023-03-25T08:25:06;99225.26;;;18.32;32.52
56176;BME280;63065;51.082;17.016;2023-03-25T08:27:30;99223.30;;;18.62;32.32
56176;BME280;63065;51.082;17.016;2023-03-25T08:29:56;99217.37;;;19.06;30.98
56176;BME280;63065;51.082;17.016;2023-03-25T08:32:22;99217.88;;;18.98;31.17
56176;BME280;63065;51.082;17.016;2023-03-25T08:34:47;99221.54;;;19.20;31.38
56176;BME280;63065;51.082;17.016;2023-03-25T08:37:13;99217.65;;;19.28;30.57
56176;BME280;63065;51.082;17.016;2023-03-25T08:39:39;99215.16;;;18.93;30.78
56176;BME280;63065;51.082;17.016;2023-03-25T08:42:06;99219.92;;;18.73;31.51
56176;BME280;63065;51.082;17.016;2023-03-25T08:44:30;99224.27;;;18.72;30.98
56176;BME280;63065;51.082;17.016;2023-03-25T08:47:01;99221.77;;;18.22;30.59
56176;BME280;63065;51.082;17.016;2023-03-25T08:49:23;99222.77;;;18.05;31.97
56176;BME280;63065;51.082;17.016;2023-03-25T08:51:49;99215.47;;;18.07;30.33
56176;BME280;63065;51.082;17.016;2023-03-25T08:54:14;99216.38;;;17.83;31.50
56176;BME280;63065;51.082;17.016;2023-03-25T08:56:39;99213.95;;;18.15;31.85
56176;BME280;63065;51.082;17.016;2023-03-25T08:59:06;99211.51;;;17.75;32.08
56176;BME280;63065;51.082;17.016;2023-03-25T09:01:31;99209.50;;;17.46;31.17
56176;BME280;63065;51.082;17.016;2023-03-25T09:03:57;99210.53;;;17.85;31.37
56176;BME280;63065;51.082;17.016;2023-03-25T09:06:23;99205.50;;;17.83;31.41
56176;BME280;63065;51.082;17.016;2023-03-25T09:08:49;99206.68;;;18.07;31.76
56176;BME280;63065;51.082;17.016;2023-03-25T09:11:15;99206.86;;;18.12;31.64
56176;BME280;63065;51.082;17.016;2023-03-25T09:13:40;99205.41;;;17.97;30.90
56176;BME280;63065;51.082;17.016;2023-03-25T09:16:07;99205.13;;;18.23;30.83
56176;BME280;63065;51.082;17.016;2023-03-25T09:18:32;99202.79;;;17.87;31.72
56176;BME280;63065;51.082;17.016;2023-03-25T09:20:58;99203.25;;;18.03;31.76
56176;BME280;63065;51.082;17.016;2023-03-25T09:23:23;99208.52;;;18.10;31.53
56176;BME280;63065;51.082;17.016;2023-03-25T09:25:49;99210.88;;;18.29;31.02
56176;BME280;63065;51.082;17.016;2023-03-25T09:28:15;99212.60;;;18.25;31.17
56176;BME280;63065;51.082;17.016;2023-03-25T09:30:40;99209.08;;;18.24;31.10
56176;BME280;63065;51.082;17.016;2023-03-25T09:33:06;99209.08;;;18.16;30.09
56176;BME280;63065;51.082;17.016;2023-03-25T09:35:32;99208.34;;;18.06;31.30
56176;BME280;63065;51.082;17.016;2023-03-25T09:37:58;99207.78;;;18.51;30.82
56176;BME280;63065;51.082;17.016;2023-03-25T09:40:24;99203.93;;;18.35;31.45
56176;BME280;63065;51.082;17.016;2023-03-25T09:43:01;99204.23;;;18.73;31.13
56176;BME280;63065;51.082;17.016;2023-03-25T09:45:24;99208.03;;;19.01;29.37
56176;BME280;63065;51.082;17.016;2023-03-25T09:47:47;99203.99;;;18.69;29.53
56176;BME280;63065;51.082;17.016;2023-03-25T09:50:12;99206.68;;;18.81;29.31
56176;BME280;63065;51.082;17.016;2023-03-25T09:52:38;99209.42;;;18.05;29.70
56176;BME280;63065;51.082;17.016;2023-03-25T09:55:02;99212.56;;;18.22;30.05
56176;BME280;63065;51.082;17.016;2023-03-25T09:57:27;99205.47;;;17.83;29.71
56176;BME280;63065;51.082;17.016;2023-03-25T09:59:51;99206.63;;;17.79;29.51
56176;BME280;63065;51.082;17.016;2023-03-25T10:02:26;99204.12;;;17.33;29.46
56176;BME280;63065;51.082;17.016;2023-03-25T10:04:54;99197.02;;;17.53;29.79
56176;BME280;63065;51.082;17.016;2023-03-25T10:07:15;99193.82;;;17.21;29.71
56176;BME280;63065;51.082;17.016;2023-03-25T10:09:42;99189.61;;;17.55;30.20
56176;BME280;63065;51.082;17.016;2023-03-25T10:12:04;99199.06;;;18.24;28.91
56176;BME280;63065;51.082;17.016;2023-03-25T10:14:27;99195.72;;;17.90;29.03
56176;BME280;63065;51.082;17.016;2023-03-25T10:16:58;99199.45;;;17.93;29.51
56176;BME280;63065;51.082;17.016;2023-03-25T10:19:31;99196.41;;;17.48;28.36
56176;BME280;63065;51.082;17.016;2023-03-25T10:21:49;99192.14;;;17.36;29.19
56176;BME280;63065;51.082;17.016;2023-03-25T10:24:16;99195.16;;;17.48;29.26
56176;BME280;63065;51.082;17.016;2023-03-25T10:26:39;99194.31;;;17.08;30.10
56176;BME280;63065;51.082;17.016;2023-03-25T10:29:03;99190.18;;;16.73;30.06
56176;BME280;63065;51.082;17.016;2023-03-25T10:31:28;99182.94;;;16.91;30.83
56176;BME280;63065;51.082;17.016;2023-03-25T10:33:53;99181.71;;;17.71;29.06
56176;BME280;63065;51.082;17.016;2023-03-25T10:36:17;99182.39;;;17.23;29.96
56176;BME280;63065;51.082;17.016;2023-03-25T10:38:43;99183.37;;;17.02;30.41
56176;BME280;63065;51.082;17.016;2023-03-25T10:41:15;99177.32;;;17.28;30.19
56176;BME280;63065;51.082;17.016;2023-03-25T10:43:38;99176.97;;;17.96;28.87
56176;BME280;63065;51.082;17.016;2023-03-25T10:46:07;99175.79;;;18.19;29.26
56176;BME280;63065;51.082;17.016;2023-03-25T10:48:28;99175.12;;;18.87;28.61
56176;BME280;63065;51.082;17.016;2023-03-25T10:50:54;99176.80;;;19.42;27.70
56176;BME280;63065;51.082;17.016;2023-03-25T10:53:21;99171.73;;;19.05;28.31
56176;BME280;63065;51.082;17.016;2023-03-25T10:55:44;99174.03;;;18.45;27.89
56176;BME280;63065;51.082;17.016;2023-03-25T10:58:10;99171.19;;;18.82;28.07
56176;BME280;63065;51.082;17.016;2023-03-25T11:00:35;99168.77;;;18.50;27.73
56176;BME280;63065;51.082;17.016;2023-03-25T11:03:00;99165.41;;;17.50;28.39
56176;BME280;63065;51.082;17.016;2023-03-25T11:05:27;99168.39;;;18.27;28.51
56176;BME280;63065;51.082;17.016;2023-03-25T11:07:54;99159.03;;;17.05;29.92
56176;BME280;63065;51.082;17.016;2023-03-25T11:10:20;99157.15;;;17.88;29.53
56176;BME280;63065;51.082;17.016;2023-03-25T11:12:44;99152.40;;;18.30;28.65
56176;BME280;63065;51.082;17.016;2023-03-25T11:15:13;99143.99;;;18.33;27.65
56176;BME280;63065;51.082;17.016;2023-03-25T11:17:36;99145.80;;;18.18;27.79
56176;BME280;63065;51.082;17.016;2023-03-25T11:20:13;99139.04;;;18.61;27.22
56176;BME280;63065;51.082;17.016;2023-03-25T11:22:29;99140.24;;;18.78;27.37
56176;BME280;63065;51.082;17.016;2023-03-25T11:24:57;99138.52;;;18.68;27.28
56176;BME280;63065;51.082;17.016;2023-03-25T11:27:21;99138.31;;;18.53;27.39
56176;BME280;63065;51.082;17.016;2023-03-25T11:29:50;99139.09;;;19.22;26.99
56176;BME280;63065;51.082;17.016;2023-03-25T11:32:13;99138.69;;;19.00;27.08
56176;BME280;63065;51.082;17.016;2023-03-25T11:34:36;99134.13;;;19.37;26.83
56176;BME280;63065;51.082;17.016;2023-03-25T11:37:11;99131.63;;;19.49;25.51
56176;BME280;63065;51.082;17.016;2023-03-25T11:39:32;99131.64;;;19.83;25.81
56176;BME280;63065;51.082;17.016;2023-03-25T11:41:53;99130.38;;;20.42;25.62
56176;BME280;63065;51.082;17.016;2023-03-25T11:44:22;99131.24;;;20.36;26.03
56176;BME280;63065;51.082;17.016;2023-03-25T11:46:46;99128.32;;;19.48;25.43
56176;BME280;63065;51.082;17.016;2023-03-25T11:49:13;99121.76;;;19.67;26.12
56176;BME280;63065;51.082;17.016;2023-03-25T11:51:36;99131.26;;;19.77;25.97
56176;BME280;63065;51.082;17.016;2023-03-25T11:54:06;99134.76;;;20.08;25.70
56176;BME280;63065;51.082;17.016;2023-03-25T11:56:33;99137.74;;;19.78;25.26
56176;BME280;63065;51.082;17.016;2023-03-25T12:01:27;99149.37;;;19.21;25.55
56176;BME280;63065;51.082;17.016;2023-03-25T12:03:45;99151.86;;;18.39;26.52
56176;BME280;63065;51.082;17.016;2023-03-25T12:06:17;99157.06;;;17.82;27.44
56176;BME280;63065;51.082;17.016;2023-03-25T12:08:42;99161.19;;;17.42;27.68
56176;BME280;63065;51.082;17.016;2023-03-25T12:11:05;99176.65;;;17.48;28.48
56176;BME280;63065;51.082;17.016;2023-03-25T12:13:42;99189.68;;;16.18;31.05
56176;BME280;63065;51.082;17.016;2023-03-25T12:16:01;99184.81;;;16.31;30.89
56176;BME280;63065;51.082;17.016;2023-03-25T12:18:30;99192.48;;;15.48;31.99
56176;BME280;63065;51.082;17.016;2023-03-25T12:20:55;99190.50;;;15.25;33.40
56176;BME280;63065;51.082;17.016;2023-03-25T12:23:18;99197.58;;;15.00;34.62
56176;BME280;63065;51.082;17.016;2023-03-25T12:25:45;99201.01;;;15.48;35.39
56176;BME280;63065;51.082;17.016;2023-03-25T12:28:14;99212.27;;;15.38;36.41
56176;BME280;63065;51.082;17.016;2023-03-25T12:30:40;99215.60;;;15.45;36.31
56176;BME280;63065;51.082;17.016;2023-03-25T12:32:59;99228.76;;;14.40;37.88
56176;BME280;63065;51.082;17.016;2023-03-25T12:35:29;99238.32;;;14.81;40.44
56176;BME280;63065;51.082;17.016;2023-03-25T12:37:59;99238.20;;;14.22;40.10
56176;BME280;63065;51.082;17.016;2023-03-25T12:42:43;99242.27;;;13.80;42.70
56176;BME280;63065;51.082;17.016;2023-03-25T12:45:16;99242.10;;;13.71;42.36
56176;BME280;63065;51.082;17.016;2023-03-25T12:47:33;99236.24;;;14.57;43.37
56176;BME280;63065;51.082;17.016;2023-03-25T12:50:10;99233.31;;;14.47;42.62
56176;BME280;63065;51.082;17.016;2023-03-25T12:52:25;99226.71;;;14.12;42.52